Time;durP1;ratioP1;P1;durP2;ratioP2;P2;SDS_P1;SDS_P2;PMS_P1;PMS_P2;Temp;Humidity;BMP_temperature;BMP_pressure;BME280_temperature;BME280_humidity;BME280_pressure;Samples;Min_cycle;Max_cycle;Signal;HPM_P1;HPM_P2
2024/03/11 00:04:56;;;;;;;2.55;2.28;;;;;;;;;;10386484;28;20036;-58
2024/03/11 00:09:56;;;;;;;4.50;2.65;;;;;;;;;;10378508;28;20037;-57
2024/03/11 00:14:57;;;;;;;7.80;2.75;;;;;;;;;;10391889;28;20049;-57
2024/03/11 00:19:58;;;;;;;3.65;2.83;;;;;;;;;;10387019;28;20032;-58
2024/03/11 00:24:58;;;;;;;4.35;2.90;;;;;;;;;;10398056;28;20492;-57
2024/03/11 00:29:59;;;;;;;3.05;2.50;;;;;;;;;;10398237;28;20221;-57
2024/03/11 00:34:59;;;;;;;3.45;2.40;;;;;;;;;;10405847;28;20084;-58
2024/03/11 00:40:01;;;;;;;2.80;2.42;;;;;;;;;;10400294;28;20504;-57
2024/03/11 00:45:02;;;;;;;3.90;2.75;;;;;;;;;;10400446;28;20072;-58
2024/03/11 00:50:06;;;;;;;4.07;2.58;;;;;;;;;;10369324;28;20057;-58
2024/03/11 00:55:09;;;;;;;4.40;2.88;;;;;;;;;;10378304;28;20025;-58
2024/03/11 01:00:11;;;;;;;5.65;2.33;;;;;;;;;;10393538;28;20049;-58
2024/03/11 01:05:13;;;;;;;2.63;2.30;;;;;;;;;;10405632;28;20216;-56
2024/03/11 01:10:15;;;;;;;7.65;2.70;;;;;;;;;;10396467;28;20033;-57
2024/03/11 01:15:16;;;;;;;2.50;2.28;;;;;;;;;;10400404;28;20392;-58
2024/03/11 01:20:17;;;;;;;4.32;2.35;;;;;;;;;;10386914;28;20037;-59
2024/03/11 01:25:20;;;;;;;3.20;2.40;;;;;;;;;;10375279;28;20029;-57
2024/03/11 01:30:20;;;;;;;4.63;2.00;;;;;;;;;;10393573;28;20026;-58
2024/03/11 01:35:21;;;;;;;4.00;2.20;;;;;;;;;;10384669;28;20033;-58
2024/03/11 01:40:22;;;;;;;2.95;2.20;;;;;;;;;;10399026;28;20037;-59
2024/03/11 01:45:23;;;;;;;2.15;1.88;;;;;;;;;;10389732;28;20093;-59
2024/03/11 01:50:24;;;;;;;2.50;2.20;;;;;;;;;;10380772;28;20030;-59
2024/03/11 01:55:25;;;;;;;2.00;1.90;;;;;;;;;;10377968;28;20041;-59
2024/03/11 02:00:26;;;;;;;1.90;1.80;;;;;;;;;;10387191;28;20048;-58
2024/03/11 02:05:28;;;;;;;5.55;2.00;;;;;;;;;;10390525;28;20381;-59
2024/03/11 02:10:29;;;;;;;4.75;2.40;;;;;;;;;;10385202;28;20045;-58
2024/03/11 02:15:30;;;;;;;8.52;2.25;;;;;;;;;;10366473;28;20040;-59
2024/03/11 02:20:31;;;;;;;2.45;2.22;;;;;;;;;;10396097;28;20030;-59
2024/03/11 02:25:32;;;;;;;3.03;2.08;;;;;;;;;;10389059;28;20030;-59
2024/03/11 02:30:32;;;;;;;1.95;1.75;;;;;;;;;;10401911;28;20477;-58
2024/03/11 02:35:33;;;;;;;2.30;2.10;;;;;;;;;;10385873;28;20570;-58
2024/03/11 02:40:38;;;;;;;4.00;2.05;;;;;;;;;;10383600;28;20029;-58
2024/03/11 02:45:39;;;;;;;2.65;2.20;;;;;;;;;;10388712;28;20049;-58
2024/03/11 02:50:40;;;;;;;2.08;1.98;;;;;;;;;;10392745;28;20049;-56
2024/03/11 02:55:40;;;;;;;2.25;1.90;;;;;;;;;;10399847;28;20025;-57
2024/03/11 03:00:41;;;;;;;3.35;1.85;;;;;;;;;;10392461;28;20029;-56
2024/03/11 03:05:42;;;;;;;2.38;2.17;;;;;;;;;;10396397;28;20032;-58
2024/03/11 03:10:42;;;;;;;2.35;2.05;;;;;;;;;;10401214;28;20032;-58
2024/03/11 03:15:43;;;;;;;2.05;1.95;;;;;;;;;;10400771;28;20040;-58
2024/03/11 03:20:43;;;;;;;2.03;1.80;;;;;;;;;;10395685;28;20116;-57
2024/03/11 03:25:44;;;;;;;2.05;1.80;;;;;;;;;;10390362;28;20037;-55
2024/03/11 03:30:46;;;;;;;1.60;1.50;;;;;;;;;;10376781;28;20032;-57
2024/03/11 03:35:47;;;;;;;2.30;2.10;;;;;;;;;;10383928;28;20175;-57
2024/03/11 03:40:47;;;;;;;2.17;1.70;;;;;;;;;;10395465;28;20033;-56
2024/03/11 03:45:49;;;;;;;3.03;2.17;;;;;;;;;;10376335;28;20042;-56
2024/03/11 03:50:50;;;;;;;2.72;2.03;;;;;;;;;;10400357;28;20026;-57
2024/03/11 03:55:51;;;;;;;2.15;1.95;;;;;;;;;;10396066;28;20037;-58
2024/03/11 04:00:52;;;;;;;2.40;1.98;;;;;;;;;;10398606;28;20052;-56
2024/03/11 04:05:53;;;;;;;2.30;1.92;;;;;;;;;;10398581;28;20037;-57
2024/03/11 04:10:53;;;;;;;2.22;1.73;;;;;;;;;;10406675;28;20469;-58
2024/03/11 04:15:57;;;;;;;2.10;1.90;;;;;;;;;;10402355;28;20395;-57
2024/03/11 04:20:57;;;;;;;2.00;1.80;;;;;;;;;;10394949;28;20405;-58
2024/03/11 04:26:00;;;;;;;2.10;1.80;;;;;;;;;;10393687;28;20072;-57
2024/03/11 04:31:00;;;;;;;3.03;1.73;;;;;;;;;;10404478;28;20029;-61
2024/03/11 04:36:01;;;;;;;1.80;1.70;;;;;;;;;;10401081;28;20056;-56
2024/03/11 04:41:02;;;;;;;4.45;1.90;;;;;;;;;;10370117;28;20029;-57
2024/03/11 04:46:03;;;;;;;1.90;1.75;;;;;;;;;;10405421;28;20102;-58
2024/03/11 04:51:06;;;;;;;3.85;1.80;;;;;;;;;;10403833;28;20065;-58
2024/03/11 04:56:07;;;;;;;1.73;1.63;;;;;;;;;;10404885;28;20026;-57
2024/03/11 05:01:08;;;;;;;2.70;1.60;;;;;;;;;;10388913;28;20029;-58
2024/03/11 05:06:08;;;;;;;2.38;1.80;;;;;;;;;;10405328;28;20044;-56
2024/03/11 05:11:09;;;;;;;2.33;1.80;;;;;;;;;;10386042;28;20026;-58
2024/03/11 05:16:09;;;;;;;2.05;1.55;;;;;;;;;;10394299;28;20477;-58
2024/03/11 05:21:10;;;;;;;1.67;1.58;;;;;;;;;;10394872;28;20107;-57
2024/03/11 05:26:11;;;;;;;2.75;1.85;;;;;;;;;;10392511;28;20037;-58
2024/03/11 05:31:11;;;;;;;1.90;1.80;;;;;;;;;;10383267;28;20045;-58
2024/03/11 05:36:13;;;;;;;4.85;1.63;;;;;;;;;;10392529;28;20041;-58
2024/03/11 05:41:14;;;;;;;1.52;1.42;;;;;;;;;;10387083;28;20556;-58
2024/03/11 05:46:15;;;;;;;2.30;1.75;;;;;;;;;;10396647;28;20063;-58
2024/03/11 05:51:15;;;;;;;1.60;1.50;;;;;;;;;;10366359;28;20034;-58
2024/03/11 05:56:19;;;;;;;2.65;1.85;;;;;;;;;;10385236;28;20037;-59
2024/03/11 06:01:20;;;;;;;2.28;2.08;;;;;;;;;;10398160;28;20030;-58
2024/03/11 06:06:21;;;;;;;1.85;1.67;;;;;;;;;;10382777;28;20033;-63
2024/03/11 06:11:23;;;;;;;2.10;1.70;;;;;;;;;;10388951;28;20083;-58
2024/03/11 06:16:24;;;;;;;1.90;1.73;;;;;;;;;;10388519;28;20030;-58
2024/03/11 06:21:25;;;;;;;1.65;1.55;;;;;;;;;;10367716;28;20028;-58
2024/03/11 06:26:27;;;;;;;1.85;1.75;;;;;;;;;;10396987;28;20030;-58
2024/03/11 06:31:29;;;;;;;1.45;1.35;;;;;;;;;;10400109;28;20091;-57
2024/03/11 06:36:30;;;;;;;2.67;1.90;;;;;;;;;;10385292;28;20424;-58
2024/03/11 06:41:31;;;;;;;3.80;1.52;;;;;;;;;;10378750;28;20103;-59
2024/03/11 06:46:32;;;;;;;1.50;1.40;;;;;;;;;;10380845;28;20163;-57
2024/03/11 06:51:32;;;;;;;1.50;1.40;;;;;;;;;;10368570;28;20088;-57
2024/03/11 06:56:33;;;;;;;1.98;1.58;;;;;;;;;;10366964;28;20041;-57
2024/03/11 07:01:33;;;;;;;11.30;1.40;;;;;;;;;;10366917;28;20037;-60
2024/03/11 07:06:35;;;;;;;12.93;1.92;;;;;;;;;;10374840;28;20477;-61
2024/03/11 07:11:37;;;;;;;5.15;1.70;;;;;;;;;;10375814;28;20022;-65
2024/03/11 07:16:38;;;;;;;7.05;2.60;;;;;;;;;;10366081;28;20087;-63
2024/03/11 07:21:39;;;;;;;2.88;2.25;;;;;;;;;;10373665;28;20025;-55
2024/03/11 07:26:40;;;;;;;7.72;2.47;;;;;;;;;;10375530;28;20232;-56
2024/03/11 07:31:40;;;;;;;4.65;2.30;;;;;;;;;;10376598;28;20021;-57
2024/03/11 07:36:41;;;;;;;6.30;2.28;;;;;;;;;;10374790;28;20034;-56
2024/03/11 07:41:42;;;;;;;6.15;2.45;;;;;;;;;;10374169;28;20091;-57
2024/03/11 07:46:46;;;;;;;3.50;1.92;;;;;;;;;;10374187;28;20045;-57
2024/03/11 07:51:46;;;;;;;3.97;2.38;;;;;;;;;;10372736;28;20033;-56
2024/03/11 07:56:47;;;;;;;8.57;3.05;;;;;;;;;;10373971;28;20025;-54
2024/03/11 08:01:48;;;;;;;3.20;2.17;;;;;;;;;;10393407;28;20397;-56
2024/03/11 08:06:49;;;;;;;3.67;2.28;;;;;;;;;;10399352;28;20034;-57
2024/03/11 08:11:50;;;;;;;3.90;2.55;;;;;;;;;;10407429;28;20488;-56
2024/03/11 08:16:51;;;;;;;4.55;2.40;;;;;;;;;;10401341;28;20029;-56
2024/03/11 08:21:52;;;;;;;3.17;2.38;;;;;;;;;;10404296;28;20040;-57
2024/03/11 08:26:52;;;;;;;4.03;2.50;;;;;;;;;;10395551;28;20029;-57
2024/03/11 08:31:53;;;;;;;3.45;2.47;;;;;;;;;;10393674;28;20037;-58
2024/03/11 08:36:54;;;;;;;3.55;2.30;;;;;;;;;;10382883;28;20033;-58
2024/03/11 08:41:54;;;;;;;4.68;2.35;;;;;;;;;;10380034;28;20046;-58
2024/03/11 08:46:55;;;;;;;5.00;2.67;;;;;;;;;;10371624;28;20033;-54
2024/03/11 08:51:58;;;;;;;6.35;2.80;;;;;;;;;;10369316;28;20531;-58
2024/03/11 08:56:59;;;;;;;6.18;2.67;;;;;;;;;;10367225;28;20038;-58
2024/03/11 09:02:01;;;;;;;7.80;2.50;;;;;;;;;;10366815;28;20065;-56
2024/03/11 09:07:04;;;;;;;4.28;2.70;;;;;;;;;;10368490;28;20062;-58
2024/03/11 09:12:05;;;;;;;5.15;2.75;;;;;;;;;;10363633;28;20469;-56
2024/03/11 09:17:05;;;;;;;3.55;2.10;;;;;;;;;;10367794;28;20427;-57
2024/03/11 09:22:06;;;;;;;6.07;2.50;;;;;;;;;;10367273;28;20033;-55
2024/03/11 09:27:07;;;;;;;3.15;2.60;;;;;;;;;;10367372;28;20030;-54
2024/03/11 09:32:08;;;;;;;3.17;2.50;;;;;;;;;;10369097;28;20444;-61
2024/03/11 09:37:09;;;;;;;3.15;2.40;;;;;;;;;;10378864;28;20028;-56
2024/03/11 09:42:11;;;;;;;4.28;2.42;;;;;;;;;;10387331;28;20052;-66
2024/03/11 09:47:12;;;;;;;3.33;2.15;;;;;;;;;;10389011;28;20478;-64
2024/03/11 09:52:13;;;;;;;3.15;2.80;;;;;;;;;;10392425;28;20123;-61
2024/03/11 09:57:15;;;;;;;2.33;1.98;;;;;;;;;;10367692;28;20024;-62
2024/03/11 10:02:21;;;;;;;4.22;2.47;;;;;;;;;;10376927;28;20162;-63
2024/03/11 10:07:23;;;;;;;3.75;2.50;;;;;;;;;;10403021;28;20025;-61
2024/03/11 10:12:24;;;;;;;2.38;2.17;;;;;;;;;;10395977;28;20037;-63
2024/03/11 10:17:32;;;;;;;3.15;2.10;;;;;;;;;;10368841;28;20034;-65
2024/03/11 10:22:36;;;;;;;2.42;2.00;;;;;;;;;;10397616;28;20061;-63
2024/03/11 10:27:43;;;;;;;2.75;2.20;;;;;;;;;;10391490;28;20111;-59
2024/03/11 10:32:45;;;;;;;4.28;2.25;;;;;;;;;;10364603;28;20103;-57
2024/03/11 10:37:47;;;;;;;3.88;2.38;;;;;;;;;;10368600;28;20454;-57
2024/03/11 10:42:54;;;;;;;3.25;2.38;;;;;;;;;;10393676;28;20037;-56
2024/03/11 10:48:00;;;;;;;2.33;2.00;;;;;;;;;;10389479;28;20021;-57
2024/03/11 10:53:04;;;;;;;2.45;2.25;;;;;;;;;;10402227;28;20037;-56
2024/03/11 10:58:09;;;;;;;2.60;2.13;;;;;;;;;;10410780;28;20018;-57
2024/03/11 11:03:13;;;;;;;3.55;2.00;;;;;;;;;;10395114;28;20466;-53
2024/03/11 11:08:15;;;;;;;2.47;2.28;;;;;;;;;;10383563;28;20025;-57
2024/03/11 11:13:17;;;;;;;3.83;2.00;;;;;;;;;;10392145;28;20062;-57
2024/03/11 11:18:24;;;;;;;2.28;2.08;;;;;;;;;;10396973;28;20061;-56
2024/03/11 11:23:34;;;;;;;4.30;2.40;;;;;;;;;;10408663;28;20018;-57
2024/03/11 11:28:40;;;;;;;1.98;1.83;;;;;;;;;;10374243;28;20030;-55
2024/03/11 11:33:57;;;;;;;5.00;2.20;;;;;;;;;;10409443;28;20413;-56
2024/03/11 11:39:23;;;;;;;2.70;2.00;;;;;;;;;;10373101;28;20034;-55
2024/03/11 11:44:27;;;;;;;2.47;2.28;;;;;;;;;;10366563;28;20072;-57
2024/03/11 11:49:34;;;;;;;2.35;2.10;;;;;;;;;;10376113;28;20034;-57
2024/03/11 11:54:35;;;;;;;2.30;1.95;;;;;;;;;;10372133;28;20401;-56
2024/03/11 11:59:38;;;;;;;2.47;2.03;;;;;;;;;;10376639;28;20054;-58
2024/03/11 12:04:56;;;;;;;2.15;1.95;;;;;;;;;;10370905;28;20413;-56
2024/03/11 12:09:59;;;;;;;2.60;2.10;;;;;;;;;;10377577;28;20488;-57
2024/03/11 12:15:01;;;;;;;2.58;2.10;;;;;;;;;;10374536;28;20480;-57
2024/03/11 12:25:34;;;;;;;;;;;;;;;;;;10380324;28;20026;-57
2024/03/11 12:30:39;;;;;;;3.28;2.28;;;;;;;;;;10376586;28;19925;-62
2024/03/11 12:35:50;;;;;;;2.10;1.90;;;;;;;;;;10376924;28;20099;-56
2024/03/11 12:40:52;;;;;;;2.50;1.98;;;;;;;;;;10378432;28;20038;-57
2024/03/11 12:45:56;;;;;;;2.92;2.08;;;;;;;;;;10384823;28;20196;-57
2024/03/11 12:50:59;;;;;;;5.28;2.15;;;;;;;;;;10375004;28;20097;-56
2024/03/11 12:56:08;;;;;;;2.28;1.80;;;;;;;;;;10379485;28;20034;-58
2024/03/11 13:01:12;;;;;;;6.30;1.90;;;;;;;;;;10391721;28;20033;-56
2024/03/11 13:06:19;;;;;;;2.75;2.00;;;;;;;;;;10381046;28;20454;-57
2024/03/11 13:11:20;;;;;;;2.60;1.90;;;;;;;;;;10357891;28;20026;-54
2024/03/11 13:16:22;;;;;;;2.50;1.92;;;;;;;;;;10362810;28;20044;-55
2024/03/11 13:21:23;;;;;;;1.70;1.60;;;;;;;;;;10387067;28;20034;-56
2024/03/11 13:26:24;;;;;;;2.78;2.00;;;;;;;;;;10391182;28;20026;-57
2024/03/11 13:31:27;;;;;;;3.08;2.00;;;;;;;;;;10371545;28;20018;-56
2024/03/11 13:36:27;;;;;;;2.15;1.90;;;;;;;;;;10380501;28;20044;-54
2024/03/11 13:41:28;;;;;;;2.00;1.80;;;;;;;;;;10371875;28;20053;-56
2024/03/11 13:46:29;;;;;;;2.45;1.65;;;;;;;;;;10363854;28;20551;-54
2024/03/11 13:51:29;;;;;;;2.05;1.67;;;;;;;;;;10367165;28;20022;-58
2024/03/11 13:56:30;;;;;;;2.05;1.85;;;;;;;;;;10388581;28;20026;-57
2024/03/11 14:01:31;;;;;;;5.38;2.20;;;;;;;;;;10398001;28;20026;-56
2024/03/11 14:06:32;;;;;;;2.58;2.03;;;;;;;;;;10390183;28;20377;-56
2024/03/11 14:11:32;;;;;;;2.40;2.17;;;;;;;;;;10375695;28;20434;-56
2024/03/11 14:16:40;;;;;;;9.23;2.17;;;;;;;;;;10374942;28;20086;-58
2024/03/11 14:21:40;;;;;;;5.68;2.17;;;;;;;;;;10388027;28;20034;-56
2024/03/11 14:26:42;;;;;;;4.10;2.10;;;;;;;;;;10370808;28;20037;-54
2024/03/11 14:31:44;;;;;;;1.92;1.65;;;;;;;;;;10363712;28;20022;-62
2024/03/11 14:36:46;;;;;;;2.38;1.70;;;;;;;;;;10426582;23;20614;-61
2024/03/11 14:41:47;;;;;;;2.58;1.60;;;;;;;;;;10444614;28;20021;-59
2024/03/11 14:46:48;;;;;;;2.78;2.10;;;;;;;;;;10484844;28;20420;-60
2024/03/11 14:51:52;;;;;;;3.10;1.90;;;;;;;;;;10488205;28;20029;-60
2024/03/11 14:56:53;;;;;;;2.03;1.80;;;;;;;;;;10480914;28;20032;-60
2024/03/11 15:01:54;;;;;;;7.03;2.03;;;;;;;;;;10475662;28;20487;-59
2024/03/11 15:06:55;;;;;;;3.45;2.20;;;;;;;;;;10488632;28;20082;-59
2024/03/11 15:11:57;;;;;;;2.20;2.00;;;;;;;;;;10475229;28;20082;-59
2024/03/11 15:17:00;;;;;;;4.03;2.33;;;;;;;;;;10470866;28;20032;-60
2024/03/11 15:22:00;;;;;;;4.80;1.88;;;;;;;;;;10470853;28;20468;-59
2024/03/11 15:27:01;;;;;;;2.58;2.38;;;;;;;;;;10483866;28;20074;-60
2024/03/11 15:32:02;;;;;;;3.15;2.05;;;;;;;;;;10494047;28;20028;-60
2024/03/11 15:37:04;;;;;;;3.15;1.95;;;;;;;;;;10476910;28;20036;-59
2024/03/11 15:42:10;;;;;;;4.50;1.98;;;;;;;;;;10498791;28;20081;-62
2024/03/11 15:47:10;;;;;;;2.75;1.80;;;;;;;;;;10495386;28;20044;-60
2024/03/11 15:52:11;;;;;;;3.28;1.88;;;;;;;;;;10482965;28;20040;-60
2024/03/11 15:57:12;;;;;;;4.13;1.90;;;;;;;;;;10474834;28;20542;-60
2024/03/11 16:02:13;;;;;;;5.47;1.92;;;;;;;;;;10477884;28;20479;-61
2024/03/11 16:07:15;;;;;;;1.88;1.60;;;;;;;;;;10469047;28;20040;-61
2024/03/11 16:12:15;;;;;;;4.75;1.90;;;;;;;;;;10471961;28;20021;-60
2024/03/11 16:17:16;;;;;;;2.72;1.55;;;;;;;;;;10475379;28;20029;-60
2024/03/11 16:22:16;;;;;;;2.17;1.98;;;;;;;;;;10473032;28;20021;-60
2024/03/11 16:27:18;;;;;;;1.77;1.60;;;;;;;;;;10471231;28;20021;-62
2024/03/11 16:32:18;;;;;;;3.10;1.95;;;;;;;;;;10489452;28;20070;-60
2024/03/11 16:37:19;;;;;;;4.65;1.70;;;;;;;;;;10472449;28;20583;-61
2024/03/11 16:42:20;;;;;;;2.72;1.63;;;;;;;;;;10470003;28;20082;-60
2024/03/11 16:47:21;;;;;;;3.08;1.65;;;;;;;;;;10455464;28;20020;-61
2024/03/11 16:52:22;;;;;;;2.60;1.60;;;;;;;;;;10466860;28;20141;-59
2024/03/11 16:57:23;;;;;;;2.53;1.60;;;;;;;;;;10469443;28;20435;-59
2024/03/11 17:02:25;;;;;;;3.28;1.70;;;;;;;;;;10480234;28;20032;-59
2024/03/11 17:07:26;;;;;;;3.85;1.70;;;;;;;;;;10471960;28;20029;-58
2024/03/11 17:12:28;;;;;;;4.57;1.60;;;;;;;;;;10474493;28;20036;-58
2024/03/11 17:17:31;;;;;;;2.97;1.60;;;;;;;;;;10474535;28;20411;-58
2024/03/11 17:22:34;;;;;;;1.77;1.60;;;;;;;;;;10481946;28;20408;-59
2024/03/11 17:27:35;;;;;;;3.67;1.98;;;;;;;;;;10489487;28;20402;-59
2024/03/11 17:32:45;;;;;;;2.33;1.58;;;;;;;;;;10483884;28;20028;-59
2024/03/11 17:37:46;;;;;;;5.30;1.60;;;;;;;;;;10475088;28;20044;-59
2024/03/11 17:42:48;;;;;;;2.40;1.50;;;;;;;;;;10476102;28;20052;-60
2024/03/11 17:47:49;;;;;;;1.85;1.70;;;;;;;;;;10464910;28;20035;-59
2024/03/11 17:52:54;;;;;;;2.58;1.70;;;;;;;;;;10466815;28;20607;-59
2024/03/11 17:57:55;;;;;;;2.70;1.83;;;;;;;;;;10459676;28;20025;-62
2024/03/11 18:03:03;;;;;;;3.00;1.50;;;;;;;;;;10485477;28;20021;-65
2024/03/11 18:08:06;;;;;;;11.10;2.03;;;;;;;;;;10477873;28;20029;-59
2024/03/11 18:13:07;;;;;;;9.65;1.75;;;;;;;;;;10482058;28;20387;-60
2024/03/11 18:18:09;;;;;;;3.45;1.70;;;;;;;;;;10473680;28;20031;-62
2024/03/11 18:23:12;;;;;;;2.97;1.92;;;;;;;;;;10463296;28;20033;-60
2024/03/11 18:28:13;;;;;;;5.65;1.88;;;;;;;;;;10465991;28;20028;-60
2024/03/11 18:33:13;;;;;;;2.40;1.80;;;;;;;;;;10480699;28;20071;-60
2024/03/11 18:38:17;;;;;;;6.05;2.00;;;;;;;;;;10462564;28;20029;-59
2024/03/11 18:43:18;;;;;;;4.60;1.73;;;;;;;;;;10470516;28;20029;-63
2024/03/11 18:48:20;;;;;;;5.55;2.00;;;;;;;;;;10466584;28;20067;-59
2024/03/11 18:53:20;;;;;;;7.20;2.00;;;;;;;;;;10471553;28;20043;-59
2024/03/11 18:58:21;;;;;;;2.47;2.00;;;;;;;;;;10464888;28;20041;-59
2024/03/11 19:03:22;;;;;;;2.55;1.85;;;;;;;;;;10460536;28;20037;-58
2024/03/11 19:08:23;;;;;;;2.45;1.80;;;;;;;;;;10469655;28;20025;-59
2024/03/11 19:13:23;;;;;;;9.18;1.83;;;;;;;;;;10477237;28;20450;-58
2024/03/11 19:18:24;;;;;;;2.58;1.80;;;;;;;;;;10475941;28;20021;-58
2024/03/11 19:23:25;;;;;;;2.90;1.98;;;;;;;;;;10474759;28;20031;-57
2024/03/11 19:28:28;;;;;;;3.13;1.85;;;;;;;;;;10486881;28;20473;-58
2024/03/11 19:33:32;;;;;;;3.38;2.00;;;;;;;;;;10477051;28;20040;-59
2024/03/11 19:39:09;;;;;;;5.75;1.77;;;;;;;;;;10481324;28;20089;-58
2024/03/11 19:44:15;;;;;;;6.57;1.90;;;;;;;;;;10476455;28;20044;-58
2024/03/11 19:49:53;;;;;;;1.70;1.60;;;;;;;;;;10477363;28;20484;-58
2024/03/11 19:55:47;;;;;;;2.28;1.88;;;;;;;;;;10483531;28;20020;-59
2024/03/11 20:01:11;;;;;;;2.70;1.90;;;;;;;;;;10475704;28;20473;-58
2024/03/11 20:06:44;;;;;;;2.35;1.85;;;;;;;;;;10473547;28;20488;-58
2024/03/11 20:12:29;;;;;;;24.00;3.25;;;;;;;;;;10477142;28;20164;-58
2024/03/11 20:18:09;;;;;;;12.82;3.00;;;;;;;;;;10484705;28;20724;-58
2024/03/11 20:23:43;;;;;;;15.77;3.60;;;;;;;;;;10485515;28;20028;-58
2024/03/11 20:29:17;;;;;;;9.88;3.63;;;;;;;;;;10486493;28;20067;-58
2024/03/11 20:34:19;;;;;;;11.98;2.50;;;;;;;;;;10478554;28;20072;-57
2024/03/11 20:39:23;;;;;;;9.60;2.95;;;;;;;;;;10476504;28;20109;-58
2024/03/11 20:44:25;;;;;;;5.00;2.70;;;;;;;;;;10477341;28;20025;-58
2024/03/11 20:49:26;;;;;;;6.38;2.55;;;;;;;;;;10487736;28;20050;-59
2024/03/11 20:54:28;;;;;;;5.30;3.20;;;;;;;;;;10483060;28;20371;-58
2024/03/11 20:59:29;;;;;;;19.27;7.60;;;;;;;;;;10469597;28;20107;-59
2024/03/11 21:04:30;;;;;;;10.15;7.00;;;;;;;;;;10469250;28;20024;-60
2024/03/11 21:09:34;;;;;;;19.35;6.85;;;;;;;;;;10464492;28;20039;-60
2024/03/11 21:14:36;;;;;;;11.60;6.38;;;;;;;;;;10472262;28;20074;-59
2024/03/11 21:19:38;;;;;;;18.58;6.90;;;;;;;;;;10470500;28;20399;-58
2024/03/11 21:24:47;;;;;;;15.88;6.50;;;;;;;;;;10473103;28;20024;-59
2024/03/11 21:29:48;;;;;;;14.13;5.55;;;;;;;;;;10462391;28;20025;-58
2024/03/11 21:34:56;;;;;;;13.55;6.43;;;;;;;;;;10453659;28;20063;-58
2024/03/11 21:39:57;;;;;;;10.50;5.60;;;;;;;;;;10472731;28;20032;-58
2024/03/11 21:44:58;;;;;;;17.92;5.20;;;;;;;;;;10480257;28;20474;-64
2024/03/11 21:49:58;;;;;;;7.13;4.82;;;;;;;;;;10463724;28;20086;-61
2024/03/11 21:54:59;;;;;;;9.48;5.63;;;;;;;;;;10467094;28;20290;-60
2024/03/11 22:00:01;;;;;;;7.80;5.07;;;;;;;;;;10476790;28;20037;-64
2024/03/11 22:05:01;;;;;;;7.93;5.07;;;;;;;;;;10474295;28;20033;-63
2024/03/11 22:10:02;;;;;;;16.13;5.03;;;;;;;;;;10477001;28;20571;-68
2024/03/11 22:15:07;;;;;;;19.73;6.05;;;;;;;;;;10480314;28;20028;-62
2024/03/11 22:20:12;;;;;;;18.45;5.53;;;;;;;;;;10466551;28;20031;-59
2024/03/11 22:25:12;;;;;;;17.08;5.30;;;;;;;;;;10481293;28;20109;-58
2024/03/11 22:30:13;;;;;;;13.27;4.43;;;;;;;;;;10474985;28;20040;-60
2024/03/11 22:35:16;;;;;;;15.05;5.22;;;;;;;;;;10469824;28;20056;-58
2024/03/11 22:40:16;;;;;;;14.70;4.00;;;;;;;;;;10478951;28;20037;-60
2024/03/11 22:45:19;;;;;;;15.50;3.88;;;;;;;;;;10482661;28;20530;-58
2024/03/11 22:50:19;;;;;;;11.02;4.25;;;;;;;;;;10483828;28;20036;-59
2024/03/11 22:55:20;;;;;;;10.75;4.68;;;;;;;;;;10477570;28;20044;-59
2024/03/11 23:00:49;;;;;;;17.23;4.32;;;;;;;;;;10465015;28;20029;-61
2024/03/11 23:05:50;;;;;;;13.55;4.13;;;;;;;;;;10467690;28;20025;-62
2024/03/11 23:10:52;;;;;;;13.00;4.63;;;;;;;;;;10479351;28;20419;-58
2024/03/11 23:15:53;;;;;;;10.82;4.25;;;;;;;;;;10479263;28;20032;-59
2024/03/11 23:20:55;;;;;;;10.32;4.20;;;;;;;;;;10462022;28;20028;-59
2024/03/11 23:25:55;;;;;;;10.20;4.55;;;;;;;;;;10477620;28;20039;-59
2024/03/11 23:30:57;;;;;;;12.00;4.50;;;;;;;;;;10483110;28;20740;-61
2024/03/11 23:35:58;;;;;;;9.63;4.20;;;;;;;;;;10484678;28;20080;-59
2024/03/11 23:40:59;;;;;;;11.90;4.45;;;;;;;;;;10482242;28;20039;-59
2024/03/11 23:45:59;;;;;;;10.75;4.82;;;;;;;;;;10485317;28;20273;-58
2024/03/11 23:51:00;;;;;;;12.10;4.82;;;;;;;;;;10468925;28;20519;-59
2024/03/11 23:56:01;;;;;;;12.63;4.60;;;;;;;;;;10472437;28;20028;-58
